createdAt,value
2023-04-04T00:00:27.139Z,10.80
2023-04-04T00:02:53.685Z,11.10
2023-04-04T00:05:20.271Z,11.80
2023-04-04T00:07:47.652Z,10.35
2023-04-04T00:10:14.596Z,10.40
2023-04-04T00:12:41.922Z,10.23
2023-04-04T00:15:09.034Z,10.25
2023-04-04T00:17:35.653Z,10.30
2023-04-04T00:20:04.336Z,9.90
2023-04-04T00:22:31.473Z,9.63
2023-04-04T00:32:39.458Z,9.30
2023-04-04T00:35:06.626Z,9.32
2023-04-04T00:37:33.946Z,9.40
2023-04-04T00:40:00.601Z,9.00
2023-04-04T00:42:27.795Z,8.65
2023-04-04T00:44:54.587Z,9.63
2023-04-04T00:47:25.894Z,8.40
2023-04-04T00:49:52.839Z,8.65
2023-04-04T00:52:19.478Z,8.55
2023-04-04T00:54:46.181Z,8.93
2023-04-04T00:57:12.771Z,8.18
2023-04-04T00:59:39.658Z,8.82
2023-04-04T01:02:06.710Z,8.48
2023-04-04T01:04:33.252Z,8.30
2023-04-04T01:07:01.136Z,7.88
2023-04-04T01:09:28.387Z,7.88
2023-04-04T01:11:55.957Z,7.63
2023-04-04T01:14:22.686Z,8.05
2023-04-04T01:16:52.543Z,8.15
2023-04-04T01:19:36.961Z,7.53
2023-04-04T01:22:06.059Z,7.03
2023-04-04T01:24:36.531Z,7.03
2023-04-04T01:27:03.184Z,6.57
2023-04-04T01:29:29.684Z,6.47
2023-04-04T01:32:16.327Z,6.80
2023-04-04T01:35:07.498Z,7.13
2023-04-04T01:37:48.103Z,6.25
2023-04-04T01:40:21.882Z,6.30
2023-04-04T01:45:15.777Z,6.18
2023-04-04T01:47:43.185Z,6.90
2023-04-04T01:50:11.636Z,6.05
2023-04-04T01:52:38.494Z,6.53
2023-04-04T01:55:05.378Z,5.85
2023-04-04T01:57:31.922Z,6.35
2023-04-04T01:59:58.450Z,5.80
2023-04-04T02:02:25.061Z,6.07
2023-04-04T02:04:52.261Z,5.72
2023-04-04T02:07:19.447Z,6.10
2023-04-04T02:09:46.248Z,5.70
2023-04-04T02:12:12.769Z,5.47
2023-04-04T02:14:39.816Z,5.70
2023-04-04T02:17:06.977Z,5.40
2023-04-04T02:19:33.636Z,5.97
2023-04-04T02:22:00.137Z,5.25
2023-04-04T02:24:26.826Z,5.85
2023-04-04T02:26:53.379Z,5.05
2023-04-04T02:29:19.941Z,4.75
2023-04-04T02:31:46.522Z,5.57
2023-04-04T02:34:13.067Z,5.55
2023-04-04T02:36:39.570Z,4.60
2023-04-04T02:39:06.129Z,5.22
2023-04-04T02:41:32.677Z,4.85
2023-04-04T02:43:59.191Z,5.10
2023-04-04T02:46:26.028Z,5.05
2023-04-04T02:48:52.688Z,4.40
2023-04-04T02:51:19.320Z,4.40
2023-04-04T02:53:46.885Z,5.00
2023-04-04T02:56:13.366Z,4.85
2023-04-04T02:58:41.509Z,4.95
2023-04-04T03:01:08.777Z,4.82
2023-04-04T03:03:35.601Z,4.72
2023-04-04T03:06:02.210Z,4.25
2023-04-04T03:08:28.710Z,4.45
2023-04-04T03:10:55.251Z,4.45
2023-04-04T03:13:22.080Z,3.97
2023-04-04T03:15:49.641Z,4.35
2023-04-04T03:18:16.496Z,4.50
2023-04-04T03:20:43.026Z,4.20
2023-04-04T03:23:09.568Z,4.05
2023-04-04T03:25:36.146Z,3.95
2023-04-04T03:28:12.622Z,3.78
2023-04-04T03:30:40.029Z,4.03
2023-04-04T03:33:09.971Z,3.95
2023-04-04T03:35:40.744Z,3.88
2023-04-04T03:38:08.526Z,3.88
2023-04-04T03:40:35.479Z,3.65
2023-04-04T03:43:05.003Z,3.60
2023-04-04T03:45:34.353Z,4.03
2023-04-04T03:48:00.950Z,3.55
2023-04-04T03:50:27.547Z,3.80
2023-04-04T03:52:54.086Z,3.65
2023-04-04T03:55:20.612Z,3.70
2023-04-04T03:57:47.720Z,4.10
2023-04-04T04:00:14.524Z,3.53
2023-04-04T04:02:41.228Z,3.47
2023-04-04T04:05:08.054Z,3.47
2023-04-04T04:07:34.725Z,3.90
2023-04-04T04:10:01.233Z,3.90
2023-04-04T04:12:27.759Z,3.25
2023-04-04T04:18:47.731Z,3.38
2023-04-04T04:21:14.745Z,3.10
2023-04-04T04:23:41.453Z,3.00
2023-04-04T04:26:07.954Z,3.10
2023-04-04T04:28:34.598Z,2.80
2023-04-04T04:31:06.343Z,3.42
2023-04-04T04:33:33.138Z,3.08
2023-04-04T04:36:02.140Z,3.05
2023-04-04T04:38:29.292Z,3.33
2023-04-04T04:40:56.885Z,3.65
2023-04-04T04:43:24.157Z,3.17
2023-04-04T04:45:50.877Z,3.85
2023-04-04T04:48:17.963Z,3.63
2023-04-04T04:50:48.365Z,3.55
2023-04-04T04:53:14.998Z,3.33
2023-04-04T04:55:43.129Z,2.85
2023-04-04T04:58:10.821Z,3.58
2023-04-04T05:00:38.433Z,3.35
2023-04-04T05:03:08.208Z,3.67
2023-04-04T05:05:35.230Z,4.68
2023-04-04T05:08:04.948Z,3.17
2023-04-04T05:10:31.629Z,2.97
2023-04-04T05:12:58.189Z,3.05
2023-04-04T05:15:31.540Z,3.25
2023-04-04T05:17:58.475Z,3.33
2023-04-04T05:20:25.295Z,3.30
2023-04-04T05:22:51.872Z,3.50
2023-04-04T05:25:18.735Z,3.08
2023-04-04T05:27:48.826Z,3.83
2023-04-04T05:30:16.944Z,3.33
2023-04-04T05:32:46.751Z,2.90
2023-04-04T05:35:13.471Z,3.28
2023-04-04T05:37:40.725Z,4.43
2023-04-04T05:40:08.273Z,3.53
2023-04-04T05:42:34.775Z,3.40
2023-04-04T05:45:01.566Z,3.08
2023-04-04T05:47:28.097Z,3.72
2023-04-04T05:49:54.657Z,3.70
2023-04-04T05:52:21.293Z,3.38
2023-04-04T05:54:48.189Z,3.13
2023-04-04T05:57:14.672Z,3.33
2023-04-04T05:59:41.166Z,3.38
2023-04-04T06:02:08.328Z,3.20
2023-04-04T06:04:34.917Z,3.45
2023-04-04T06:07:01.681Z,3.75
2023-04-04T06:09:28.231Z,3.40
2023-04-04T06:11:54.736Z,3.35
2023-04-04T06:14:21.411Z,3.63
2023-04-04T06:16:48.019Z,3.35
2023-04-04T06:19:14.546Z,3.55
2023-04-04T06:21:41.165Z,3.50
2023-04-04T06:24:07.768Z,3.47
2023-04-04T06:26:34.550Z,3.22
2023-04-04T06:29:01.033Z,3.17
2023-04-04T06:31:27.691Z,3.28
2023-04-04T06:33:54.287Z,3.20
2023-04-04T06:36:21.433Z,3.13
2023-04-04T06:38:48.031Z,3.83
2023-04-04T06:41:14.603Z,3.00
2023-04-04T06:43:41.589Z,3.72
2023-04-04T06:46:08.142Z,3.22
2023-04-04T06:48:34.619Z,3.53
2023-04-04T06:51:01.364Z,3.10
2023-04-04T06:53:28.005Z,2.92
2023-04-04T06:55:54.598Z,3.03
2023-04-04T06:58:21.270Z,3.33
2023-04-04T07:00:47.876Z,3.45
2023-04-04T07:03:14.496Z,3.45
2023-04-04T07:05:41.649Z,3.30
2023-04-04T07:08:08.878Z,2.90
2023-04-04T07:10:35.893Z,3.50
2023-04-04T07:13:02.464Z,2.92
2023-04-04T07:15:29.078Z,3.22
2023-04-04T07:17:55.695Z,2.95
2023-04-04T07:20:22.397Z,2.70
2023-04-04T07:22:49.327Z,3.10
2023-04-04T07:25:16.030Z,2.70
2023-04-04T07:27:42.818Z,3.20
2023-04-04T07:30:10.045Z,3.30
2023-04-04T07:32:38.249Z,2.50
2023-04-04T07:35:08.133Z,2.90
2023-04-04T07:37:37.212Z,2.60
2023-04-04T07:40:05.810Z,2.90
2023-04-04T07:42:32.304Z,2.88
2023-04-04T07:44:58.831Z,2.55
2023-04-04T07:47:26.393Z,3.20
2023-04-04T07:49:52.968Z,2.65
2023-04-04T07:52:19.494Z,2.75
2023-04-04T07:54:47.752Z,2.60
2023-04-04T07:57:14.417Z,2.58
2023-04-04T07:59:41.141Z,2.50
2023-04-04T08:02:08.185Z,2.58
2023-04-04T08:04:34.728Z,2.50
2023-04-04T08:07:01.339Z,2.58
2023-04-04T08:09:33.969Z,2.55
2023-04-04T08:12:02.142Z,2.50
2023-04-04T08:14:29.073Z,3.05
2023-04-04T08:16:55.624Z,2.63
2023-04-04T08:19:22.529Z,2.25
2023-04-04T08:21:50.022Z,2.15
2023-04-04T08:24:16.614Z,2.38
2023-04-04T08:26:45.265Z,2.60
2023-04-04T08:29:15.786Z,2.15
2023-04-04T08:31:42.565Z,2.50
2023-04-04T08:34:09.134Z,2.00
2023-04-04T08:36:35.841Z,2.30
2023-04-04T08:39:03.760Z,1.90
2023-04-04T08:41:32.745Z,2.10
2023-04-04T08:44:02.816Z,2.30
2023-04-04T08:46:30.551Z,1.88
2023-04-04T08:48:59.448Z,2.25
2023-04-04T08:51:26.706Z,1.95
2023-04-04T08:53:55.805Z,2.03
2023-04-04T08:56:23.806Z,2.28
2023-04-04T08:58:50.576Z,1.92
2023-04-04T09:01:17.424Z,2.10
2023-04-04T09:03:45.060Z,1.88
2023-04-04T09:06:12.626Z,1.95
2023-04-04T09:08:40.055Z,1.85
2023-04-04T09:11:07.018Z,1.52
2023-04-04T09:13:33.583Z,1.77
2023-04-04T09:16:00.642Z,1.77
2023-04-04T09:18:27.317Z,1.75
2023-04-04T09:20:53.983Z,1.95
2023-04-04T09:23:21.322Z,2.20
2023-04-04T09:26:03.109Z,1.73
2023-04-04T09:28:31.773Z,1.95
2023-04-04T09:31:01.074Z,1.75
2023-04-04T09:33:27.822Z,1.55
2023-04-04T09:36:10.298Z,1.83
2023-04-04T09:38:40.651Z,1.50
2023-04-04T09:41:11.060Z,2.13
2023-04-04T09:43:39.709Z,1.88
2023-04-04T09:46:07.776Z,1.60
2023-04-04T09:48:36.829Z,1.58
2023-04-04T09:51:07.869Z,1.60
2023-04-04T09:53:36.498Z,2.10
2023-04-04T09:56:03.457Z,1.80
2023-04-04T09:58:32.596Z,1.60
2023-04-04T10:01:04.240Z,1.70
2023-04-04T10:03:31.186Z,1.65
2023-04-04T10:06:06.748Z,2.10
2023-04-04T10:08:35.080Z,2.40
2023-04-04T10:11:11.530Z,2.10
2023-04-04T10:13:44.502Z,2.08
2023-04-04T10:16:11.882Z,2.25
2023-04-04T10:18:39.646Z,2.47
2023-04-04T10:23:40.381Z,2.08
2023-04-04T10:26:07.557Z,2.22
2023-04-04T10:28:34.415Z,2.58
2023-04-04T10:31:24.341Z,2.10
2023-04-04T10:34:09.545Z,2.22
2023-04-04T10:36:49.280Z,2.25
2023-04-04T10:39:24.069Z,2.03
2023-04-04T10:41:52.708Z,2.22
2023-04-04T10:44:33.498Z,2.28
2023-04-04T10:47:09.038Z,1.88
2023-04-04T10:49:36.747Z,2.25
2023-04-04T10:52:03.923Z,1.90
2023-04-04T10:54:30.587Z,1.70
2023-04-04T10:57:01.252Z,2.70
2023-04-04T10:59:28.180Z,1.75
2023-04-04T11:02:00.413Z,1.88
2023-04-04T11:04:35.090Z,1.30
2023-04-04T11:07:11.515Z,2.10
2023-04-04T11:10:14.138Z,1.80
2023-04-04T11:12:45.803Z,2.10
2023-04-04T11:15:14.396Z,1.45
2023-04-04T11:17:46.897Z,1.60
2023-04-04T11:20:19.767Z,1.88
2023-04-04T11:22:49.232Z,1.80
2023-04-04T11:25:42.377Z,1.60
2023-04-04T11:28:14.764Z,1.73
2023-04-04T11:30:50.241Z,1.25
2023-04-04T11:33:27.753Z,1.48
2023-04-04T11:35:58.908Z,2.05
2023-04-04T11:38:27.110Z,1.63
2023-04-04T11:40:54.858Z,1.58
2023-04-04T11:43:21.459Z,1.65
2023-04-04T11:45:48.847Z,1.52
2023-04-04T11:48:17.291Z,1.30
2023-04-04T11:50:49.554Z,1.48
2023-04-04T11:53:17.369Z,1.48
2023-04-04T11:55:47.466Z,1.80
2023-04-04T11:58:16.098Z,1.33
2023-04-04T12:00:44.439Z,2.15
2023-04-04T12:03:12.936Z,1.48
2023-04-04T12:05:42.216Z,1.65
2023-04-04T12:08:10.908Z,1.45
2023-04-04T12:10:40.533Z,1.60
2023-04-04T12:13:08.700Z,1.30
2023-04-04T12:15:37.090Z,1.27
2023-04-04T12:18:08.174Z,1.30
2023-04-04T12:20:38.527Z,1.20
2023-04-04T12:23:05.088Z,1.17
2023-04-04T12:25:34.133Z,1.38
2023-04-04T12:28:03.958Z,1.23
2023-04-04T12:30:31.083Z,1.27
2023-04-04T12:32:58.098Z,1.33
2023-04-04T12:35:24.819Z,1.20
2023-04-04T12:38:07.178Z,1.20
2023-04-04T12:40:37.458Z,1.50
2023-04-04T12:43:08.878Z,1.08
2023-04-04T12:45:39.695Z,1.33
2023-04-04T12:48:12.177Z,1.23
2023-04-04T12:50:57.941Z,1.33
2023-04-04T12:53:29.555Z,1.05
2023-04-04T12:56:02.340Z,1.52
2023-04-04T12:58:29.373Z,1.05
2023-04-04T13:01:00.229Z,1.13
2023-04-04T13:03:28.662Z,1.15
2023-04-04T13:05:55.380Z,1.10
2023-04-04T13:08:22.089Z,1.00
2023-04-04T13:11:04.766Z,1.20
2023-04-04T13:13:38.757Z,1.05
2023-04-04T13:16:09.651Z,0.98
2023-04-04T13:18:38.706Z,1.23
2023-04-04T13:21:09.568Z,1.30
2023-04-04T13:23:39.388Z,1.20
2023-04-04T13:26:08.167Z,1.23
2023-04-04T13:28:35.416Z,1.00
2023-04-04T13:31:03.953Z,1.48
2023-04-04T13:33:30.961Z,1.20
2023-04-04T13:36:00.510Z,0.90
2023-04-04T13:38:28.665Z,1.95
2023-04-04T13:40:57.465Z,1.70
2023-04-04T13:43:24.186Z,1.20
2023-04-04T13:45:50.736Z,1.00
2023-04-04T13:48:17.455Z,0.90
2023-04-04T13:50:47.440Z,0.90
2023-04-04T13:53:13.974Z,1.10
2023-04-04T13:55:52.094Z,1.10
2023-04-04T13:58:27.036Z,1.20
2023-04-04T14:00:53.661Z,1.15
2023-04-04T14:03:21.513Z,0.93
2023-04-04T14:05:48.094Z,1.33
2023-04-04T14:08:15.051Z,0.88
2023-04-04T14:10:41.731Z,0.80
2023-04-04T14:13:08.250Z,1.05
2023-04-04T14:15:34.776Z,0.90
2023-04-04T14:18:01.565Z,1.10
2023-04-04T14:20:28.147Z,1.20
2023-04-04T14:22:54.855Z,1.20
2023-04-04T14:25:21.449Z,1.20
2023-04-04T14:27:48.022Z,1.05
2023-04-04T14:30:15.027Z,0.90
2023-04-04T14:32:41.622Z,0.90
2023-04-04T14:35:09.019Z,1.42
2023-04-04T14:37:35.819Z,1.23
2023-04-04T14:40:02.443Z,2.05
2023-04-04T14:42:28.969Z,2.22
2023-04-04T14:44:55.498Z,2.90
2023-04-04T14:47:22.060Z,3.45
2023-04-04T14:49:48.618Z,3.13
2023-04-04T14:52:15.134Z,3.97
2023-04-04T14:54:41.687Z,3.88
2023-04-04T14:57:08.230Z,3.80
2023-04-04T14:59:34.867Z,3.65
2023-04-04T15:02:01.412Z,4.18
2023-04-04T15:04:28.058Z,3.70
2023-04-04T15:06:56.641Z,4.35
2023-04-04T15:09:23.255Z,3.47
2023-04-04T15:11:50.403Z,3.72
2023-04-04T15:14:16.951Z,3.90
2023-04-04T15:16:43.532Z,4.35
2023-04-04T15:19:11.349Z,4.22
2023-04-04T15:21:37.881Z,5.63
2023-04-04T15:24:04.662Z,4.70
2023-04-04T15:26:31.307Z,5.47
2023-04-04T15:28:57.799Z,5.57
2023-04-04T15:31:26.262Z,6.80
2023-04-04T15:33:55.311Z,6.38
2023-04-04T15:36:23.518Z,7.82
2023-04-04T15:38:50.165Z,6.93
2023-04-04T15:41:16.715Z,6.55
2023-04-04T15:43:43.302Z,6.88
2023-04-04T15:46:09.878Z,7.72
2023-04-04T15:48:36.465Z,7.30
2023-04-04T15:51:04.334Z,7.70
2023-04-04T15:53:31.442Z,7.40
2023-04-04T15:55:58.956Z,7.00
2023-04-04T15:58:26.460Z,7.15
2023-04-04T16:00:53.567Z,8.15
2023-04-04T16:03:20.552Z,6.63
2023-04-04T16:05:48.150Z,6.22
2023-04-04T16:08:14.946Z,7.53
2023-04-04T16:10:43.969Z,7.43
2023-04-04T16:13:11.242Z,7.07
2023-04-04T16:15:38.298Z,6.68
2023-04-04T16:18:05.227Z,6.93
2023-04-04T16:20:31.929Z,7.18
2023-04-04T16:22:58.470Z,8.48
2023-04-04T16:25:25.129Z,8.88
2023-04-04T16:27:51.635Z,8.63
2023-04-04T16:30:18.360Z,10.43
2023-04-04T16:32:47.072Z,11.50
2023-04-04T16:35:14.083Z,12.82
2023-04-04T16:37:40.792Z,13.48
2023-04-04T16:40:08.338Z,16.55
2023-04-04T16:42:35.106Z,19.60
2023-04-04T16:45:01.714Z,21.52
2023-04-04T16:47:28.477Z,23.08
2023-04-04T16:49:55.367Z,25.02
2023-04-04T16:52:22.006Z,24.58
2023-04-04T16:54:48.625Z,25.23
2023-04-04T16:57:15.178Z,25.10
2023-04-04T16:59:41.842Z,25.30
2023-04-04T17:02:08.579Z,33.88
2023-04-04T17:04:35.515Z,31.23
2023-04-04T17:07:02.923Z,32.00
2023-04-04T17:09:29.525Z,31.98
2023-04-04T17:11:57.268Z,33.35
2023-04-04T17:14:25.652Z,34.67
2023-04-04T17:16:53.339Z,35.25
2023-04-04T17:19:20.090Z,34.92
2023-04-04T17:21:47.057Z,33.90
2023-04-04T17:24:14.314Z,33.92
2023-04-04T17:26:40.965Z,34.40
2023-04-04T17:29:07.523Z,33.45
2023-04-04T17:31:34.108Z,34.60
2023-04-04T17:34:00.639Z,33.72
2023-04-04T17:36:27.620Z,34.40
2023-04-04T17:38:54.214Z,33.13
2023-04-04T17:41:20.800Z,34.05
2023-04-04T17:43:47.418Z,33.40
2023-04-04T17:46:16.577Z,32.67
2023-04-04T17:48:43.440Z,31.58
2023-04-04T17:51:10.891Z,32.95
2023-04-04T17:53:37.468Z,30.80
2023-04-04T17:56:04.189Z,32.00
2023-04-04T17:58:30.699Z,30.77
2023-04-04T18:00:57.912Z,30.63
2023-04-04T18:03:24.528Z,29.08
2023-04-04T18:05:52.763Z,29.23
2023-04-04T18:08:19.400Z,29.13
2023-04-04T18:10:45.946Z,29.33
2023-04-04T18:13:12.527Z,28.35
2023-04-04T18:15:39.138Z,27.38
2023-04-04T18:18:06.384Z,27.17
2023-04-04T18:20:35.430Z,26.95
2023-04-04T18:23:05.955Z,25.55
2023-04-04T18:25:32.821Z,25.70
2023-04-04T18:28:00.207Z,25.33
2023-04-04T18:30:26.767Z,26.10
2023-04-04T18:32:53.507Z,25.02
2023-04-04T18:35:20.031Z,24.45
2023-04-04T18:37:46.677Z,25.45
2023-04-04T18:40:13.214Z,24.73
2023-04-04T18:42:40.193Z,24.25
2023-04-04T18:45:08.165Z,24.73
2023-04-04T18:47:34.826Z,24.95
2023-04-04T18:50:01.498Z,23.67
2023-04-04T18:52:28.101Z,23.92
2023-04-04T18:54:54.597Z,24.75
2023-04-04T18:57:21.473Z,24.05
2023-04-04T18:59:48.046Z,22.25
2023-04-04T19:02:14.596Z,22.92
2023-04-04T19:04:41.197Z,23.27
2023-04-04T19:07:07.898Z,22.67
2023-04-04T19:09:36.541Z,22.60
2023-04-04T19:12:03.848Z,22.38
2023-04-04T19:14:30.664Z,21.83
2023-04-04T19:16:57.344Z,21.23
2023-04-04T19:19:24.199Z,21.17
2023-04-04T19:21:50.719Z,20.48
2023-04-04T19:24:17.268Z,19.75
2023-04-04T19:26:44.022Z,19.00
2023-04-04T19:29:11.078Z,19.85
2023-04-04T19:31:37.615Z,19.88
2023-04-04T19:34:09.572Z,17.65
2023-04-04T19:36:37.539Z,17.83
2023-04-04T19:39:05.358Z,16.88
2023-04-04T19:41:36.720Z,18.52
2023-04-04T19:44:04.957Z,17.67
2023-04-04T19:46:33.083Z,17.40
2023-04-04T19:49:00.608Z,17.20
2023-04-04T19:51:27.901Z,16.88
2023-04-04T19:53:56.474Z,15.55
2023-04-04T19:56:26.029Z,16.13
2023-04-04T19:59:01.767Z,16.33
2023-04-04T20:01:29.807Z,16.00
2023-04-04T20:03:57.412Z,15.48
2023-04-04T20:06:34.229Z,14.68
2023-04-04T20:09:13.088Z,15.48
2023-04-04T20:11:40.121Z,15.30
2023-04-04T20:14:08.433Z,15.90
2023-04-04T20:16:35.959Z,16.40
2023-04-04T20:19:06.677Z,13.93
2023-04-04T20:21:34.599Z,14.93
2023-04-04T20:24:08.277Z,14.52
2023-04-04T20:26:52.363Z,13.90
2023-04-04T20:31:51.637Z,14.63
2023-04-04T20:34:42.037Z,15.60
2023-04-04T20:37:12.856Z,13.05
2023-04-04T20:40:02.762Z,13.23
2023-04-04T20:42:29.294Z,13.85
2023-04-04T20:45:12.473Z,13.43
2023-04-04T20:47:51.578Z,12.60
2023-04-04T20:50:18.437Z,14.07
2023-04-04T20:52:52.803Z,14.05
2023-04-04T20:55:20.986Z,13.75
2023-04-04T20:57:47.954Z,12.82
2023-04-04T21:00:30.063Z,11.70
2023-04-04T21:02:58.607Z,12.82
2023-04-04T21:05:34.240Z,12.23
2023-04-04T21:08:01.966Z,11.60
2023-04-04T21:10:28.622Z,11.90
2023-04-04T21:12:57.705Z,13.45
2023-04-04T21:15:35.119Z,12.05
2023-04-04T21:18:07.771Z,12.35
2023-04-04T21:20:46.284Z,12.55
2023-04-04T21:23:39.078Z,11.43
2023-04-04T21:26:10.721Z,11.40
2023-04-04T21:28:42.004Z,11.73
2023-04-04T21:31:16.755Z,11.65
2023-04-04T21:33:45.318Z,11.02
2023-04-04T21:36:28.520Z,11.27
2023-04-04T21:38:57.364Z,11.88
2023-04-04T21:41:27.114Z,11.10
2023-04-04T21:43:55.027Z,10.63
2023-04-04T21:46:27.268Z,11.38
2023-04-04T21:48:54.820Z,10.80
2023-04-04T21:51:21.808Z,10.52
2023-04-04T21:53:49.899Z,10.85
2023-04-04T21:56:17.342Z,10.02
2023-04-04T21:58:44.467Z,10.20
2023-04-04T22:01:11.275Z,10.60
2023-04-04T22:03:39.217Z,10.63
2023-04-04T22:06:06.209Z,10.20
2023-04-04T22:08:32.792Z,9.90
2023-04-04T22:11:01.807Z,9.90
2023-04-04T22:13:33.026Z,9.57
2023-04-04T22:16:01.065Z,9.38
2023-04-04T22:18:33.092Z,9.45
2023-04-04T22:21:04.237Z,9.52
2023-04-04T22:23:38.097Z,9.23
2023-04-04T22:26:05.776Z,8.60
2023-04-04T22:28:33.705Z,9.50
2023-04-04T22:31:01.842Z,8.50
2023-04-04T22:33:29.787Z,8.55
2023-04-04T22:35:58.883Z,9.20
2023-04-04T22:38:26.547Z,9.27
2023-04-04T22:40:53.895Z,8.35
2023-04-04T22:43:21.314Z,8.93
2023-04-04T22:45:48.158Z,8.73
2023-04-04T22:48:15.314Z,8.57
2023-04-04T22:50:42.376Z,8.07
2023-04-04T22:53:12.927Z,8.27
2023-04-04T22:55:40.376Z,7.45
2023-04-04T22:58:07.607Z,7.68
2023-04-04T23:00:35.126Z,7.95
2023-04-04T23:03:02.266Z,7.80
2023-04-04T23:05:29.271Z,8.32
2023-04-04T23:08:01.329Z,7.25
2023-04-04T23:10:27.928Z,7.40
2023-04-04T23:12:54.491Z,7.45
2023-04-04T23:15:21.038Z,6.97
2023-04-04T23:17:47.802Z,8.00
2023-04-04T23:20:14.522Z,7.25
2023-04-04T23:22:41.612Z,7.05
2023-04-04T23:25:08.561Z,7.07
2023-04-04T23:27:35.383Z,7.25
2023-04-04T23:30:03.511Z,7.25
2023-04-04T23:32:31.680Z,6.25
2023-04-04T23:34:58.504Z,6.47
2023-04-04T23:37:25.154Z,6.35
2023-04-04T23:39:51.702Z,6.38
2023-04-04T23:42:18.286Z,6.55
2023-04-04T23:44:45.618Z,6.20
2023-04-04T23:47:12.386Z,6.30
2023-04-04T23:49:38.962Z,6.28
2023-04-04T23:52:06.155Z,6.15
2023-04-04T23:54:32.850Z,6.07
2023-04-04T23:56:59.422Z,6.65
2023-04-04T23:59:26.972Z,5.93
